Time;durP1;ratioP1;P1;durP2;ratioP2;P2;SDS_P1;SDS_P2;PMS_P1;PMS_P2;Temp;Humidity;BMP_temperature;BMP_pressure;BME280_temperature;BME280_humidity;BME280_pressure;Samples;Min_cycle;Max_cycle;Signal;HPM_P1;HPM_P2
2021/12/04 00:00:24;;;;;;;2.03;0.80;;;;;;;-140.79;100.00;63287.88;5045828;28;20032;-52
2021/12/04 00:02:50;;;;;;;1.42;0.70;;;;;;;-140.79;100.00;63287.88;5046341;28;20021;-52
2021/12/04 00:05:16;;;;;;;1.00;0.60;;;;;;;-140.79;100.00;63287.88;5045963;28;20025;-51
2021/12/04 00:07:41;;;;;;;1.15;0.63;;;;;;;-140.79;100.00;63287.88;5044529;28;21299;-54
2021/12/04 00:10:07;;;;;;;1.42;0.70;;;;;;;-140.79;100.00;63287.88;5045412;28;20032;-53
2021/12/04 00:12:34;;;;;;;1.27;0.82;;;;;;;-140.79;100.00;63287.88;5045502;28;20032;-53
2021/12/04 00:15:00;;;;;;;1.65;0.70;;;;;;;-140.79;100.00;63287.88;5045610;28;20086;-53
2021/12/04 00:17:26;;;;;;;0.85;0.60;;;;;;;-140.79;100.00;63287.88;5045740;28;20151;-52
2021/12/04 00:19:51;;;;;;;1.60;1.00;;;;;;;-140.79;100.00;63287.88;5045464;28;20542;-53
2021/12/04 00:22:16;;;;;;;0.90;0.57;;;;;;;-140.79;100.00;63287.88;5045128;28;20033;-52
2021/12/04 00:24:42;;;;;;;1.70;0.70;;;;;;;-140.79;100.00;63287.88;5045561;28;20025;-54
2021/12/04 00:27:07;;;;;;;1.33;0.68;;;;;;;-140.79;100.00;63287.88;5044250;28;20569;-54
2021/12/04 00:29:33;;;;;;;1.63;0.80;;;;;;;-140.79;100.00;63287.88;5045375;28;20605;-54
2021/12/04 00:32:02;;;;;;;1.95;0.60;;;;;;;-140.79;100.00;63287.88;5045106;28;20553;-54
2021/12/04 00:34:30;;;;;;;1.30;0.70;;;;;;;-140.79;100.00;63287.88;5045060;28;20067;-53
2021/12/04 00:37:10;;;;;;;1.23;0.60;;;;;;;-140.79;100.00;63287.88;5045531;28;20103;-52
2021/12/04 00:50:32;;;;;;;1.70;0.70;;;;;;;-140.79;100.00;63287.88;5044478;28;20059;-53
2021/12/04 00:52:58;;;;;;;1.17;0.50;;;;;;;-140.79;100.00;63287.88;5044878;28;20209;-54
2021/12/04 00:55:23;;;;;;;1.88;0.65;;;;;;;-140.79;100.00;63287.88;5044671;28;20040;-54
2021/12/04 00:57:48;;;;;;;1.10;0.60;;;;;;;-140.79;100.00;63287.88;5044625;28;20426;-52
2021/12/04 01:00:19;;;;;;;2.05;0.88;;;;;;;-140.79;100.00;63287.88;5044434;28;20423;-52
2021/12/04 01:02:44;;;;;;;1.20;0.60;;;;;;;-140.79;100.00;63287.88;5044234;28;20044;-53
2021/12/04 01:05:10;;;;;;;1.20;0.75;;;;;;;-140.79;100.00;63287.88;5044600;28;20102;-53
2021/12/04 01:07:35;;;;;;;1.52;0.60;;;;;;;-140.79;100.00;63287.88;5044681;28;20446;-53
2021/12/04 01:10:01;;;;;;;1.17;0.70;;;;;;;-140.79;100.00;63287.88;5044558;28;20029;-51
2021/12/04 01:12:27;;;;;;;0.95;0.45;;;;;;;-140.79;100.00;63287.88;5043617;28;20036;-52
2021/12/04 01:14:52;;;;;;;1.27;0.70;;;;;;;-140.79;100.00;63287.88;5043978;28;20091;-52
2021/12/04 01:17:17;;;;;;;1.20;0.50;;;;;;;-140.79;100.00;63287.88;5043568;28;20042;-53
2021/12/04 01:19:43;;;;;;;1.20;0.50;;;;;;;-140.79;100.00;63287.88;5043268;28;20032;-53
2021/12/04 01:22:09;;;;;;;1.30;0.77;;;;;;;-140.79;100.00;63287.88;5043807;28;20037;-53
2021/12/04 01:24:34;;;;;;;1.25;0.60;;;;;;;-140.79;100.00;63287.88;5044063;28;20603;-54
2021/12/04 01:26:59;;;;;;;0.90;0.50;;;;;;;-140.79;100.00;63287.88;5044027;28;20029;-56
2021/12/04 01:29:25;;;;;;;1.17;0.55;;;;;;;-140.79;100.00;63287.88;5043505;28;20036;-52
2021/12/04 01:31:50;;;;;;;1.00;0.60;;;;;;;-140.79;100.00;63287.88;5042353;28;20128;-51
2021/12/04 01:34:16;;;;;;;1.40;0.73;;;;;;;-140.79;100.00;63287.88;5042709;28;20028;-54
2021/12/04 01:36:42;;;;;;;1.50;0.70;;;;;;;-140.79;100.00;63287.88;5043640;28;20487;-52
2021/12/04 01:39:08;;;;;;;1.83;0.93;;;;;;;-140.79;100.00;63287.88;5043373;28;20108;-53
2021/12/04 01:41:33;;;;;;;1.60;0.80;;;;;;;-140.79;100.00;63287.88;5041363;28;20029;-54
2021/12/04 01:44:00;;;;;;;0.68;0.40;;;;;;;-140.79;100.00;63287.88;5043436;28;20040;-54
2021/12/04 01:46:26;;;;;;;1.20;0.70;;;;;;;-140.79;100.00;63287.88;5043250;28;20021;-52
2021/12/04 01:48:52;;;;;;;0.63;0.50;;;;;;;-140.79;100.00;63287.88;5042271;28;20865;-53
2021/12/04 01:51:17;;;;;;;0.90;0.65;;;;;;;-140.79;100.00;63287.88;5043180;28;20049;-53
2021/12/04 01:53:42;;;;;;;1.38;0.68;;;;;;;-140.79;100.00;63287.88;5043225;28;20036;-52
2021/12/04 01:56:08;;;;;;;0.85;0.50;;;;;;;-140.79;100.00;63287.88;5042905;28;20040;-53
2021/12/04 01:58:33;;;;;;;0.88;0.55;;;;;;;-140.79;100.00;63287.88;5042510;28;20037;-53
2021/12/04 02:00:59;;;;;;;0.77;0.50;;;;;;;-140.79;100.00;63287.88;5041765;28;20165;-52
2021/12/04 02:03:24;;;;;;;0.80;0.57;;;;;;;-140.79;100.00;63287.88;5040960;28;20037;-51
2021/12/04 02:05:50;;;;;;;0.93;0.50;;;;;;;-140.79;100.00;63287.88;5042024;28;20187;-51
2021/12/04 02:08:17;;;;;;;1.25;0.50;;;;;;;-140.79;100.00;63287.88;5041526;28;20032;-51
2021/12/04 02:10:43;;;;;;;1.00;0.60;;;;;;;-140.79;100.00;63287.88;5040585;28;20041;-52
2021/12/04 02:13:09;;;;;;;1.33;0.60;;;;;;;-140.79;100.00;63287.88;5042393;28;20029;-52
2021/12/04 02:15:34;;;;;;;0.90;0.50;;;;;;;-140.79;100.00;63287.88;5042843;28;20032;-52
2021/12/04 02:18:02;;;;;;;0.82;0.43;;;;;;;-140.79;100.00;63287.88;5041498;28;20037;-53
2021/12/04 02:20:28;;;;;;;1.05;0.60;;;;;;;-140.79;100.00;63287.88;5043005;28;20021;-52
2021/12/04 02:22:54;;;;;;;0.85;0.43;;;;;;;-140.79;100.00;63287.88;5042677;28;20043;-54
2021/12/04 02:25:19;;;;;;;1.90;0.60;;;;;;;-140.79;100.00;63287.88;5042257;28;20037;-53
2021/12/04 02:27:45;;;;;;;1.98;0.80;;;;;;;-140.79;100.00;63287.88;5042285;28;20510;-52
2021/12/04 02:30:12;;;;;;;1.75;0.50;;;;;;;-140.79;100.00;63287.88;5042674;28;20124;-52
2021/12/04 02:32:38;;;;;;;1.20;0.70;;;;;;;-140.79;100.00;63287.88;5042466;28;20111;-52
2021/12/04 02:35:04;;;;;;;0.98;0.73;;;;;;;-140.79;100.00;63287.88;5042622;28;20136;-52
2021/12/04 02:37:32;;;;;;;0.80;0.40;;;;;;;-140.79;100.00;63287.88;5042880;28;20068;-54
2021/12/04 02:40:00;;;;;;;0.85;0.50;;;;;;;-140.79;100.00;63287.88;5042263;28;20041;-53
2021/12/04 02:42:30;;;;;;;1.25;0.40;;;;;;;-140.79;100.00;63287.88;5041907;28;20166;-54
2021/12/04 02:44:56;;;;;;;1.02;0.68;;;;;;;-140.79;100.00;63287.88;5042119;28;20127;-54
2021/12/04 02:47:21;;;;;;;1.50;0.57;;;;;;;-140.79;100.00;63287.88;5045191;28;20032;-52
2021/12/04 02:49:47;;;;;;;0.80;0.60;;;;;;;-140.79;100.00;63287.88;5046907;28;20651;-51
2021/12/04 02:52:13;;;;;;;0.85;0.40;;;;;;;-140.79;100.00;63287.88;5046756;28;20037;-50
2021/12/04 02:54:38;;;;;;;1.08;0.57;;;;;;;-140.79;100.00;63287.88;5061814;28;20036;-52
2021/12/04 02:57:05;;;;;;;0.77;0.38;;;;;;;-140.79;100.00;63287.88;5046199;28;20033;-50
2021/12/04 02:59:32;;;;;;;1.00;0.50;;;;;;;-140.79;100.00;63287.88;5046291;28;20044;-50
2021/12/04 03:01:58;;;;;;;0.88;0.50;;;;;;;-140.79;100.00;63287.88;5046027;28;20029;-52
2021/12/04 03:04:25;;;;;;;1.10;0.63;;;;;;;-140.79;100.00;63287.88;5045075;28;20044;-53
2021/12/04 03:06:50;;;;;;;1.10;0.50;;;;;;;-140.79;100.00;63287.88;5046456;28;20035;-52
2021/12/04 03:09:16;;;;;;;1.02;0.60;;;;;;;-140.79;100.00;63287.88;5045848;28;20037;-51
2021/12/04 03:11:41;;;;;;;1.00;0.75;;;;;;;-140.79;100.00;63287.88;5046034;28;20029;-53
2021/12/04 03:14:07;;;;;;;0.73;0.50;;;;;;;-140.79;100.00;63287.88;5046522;28;20112;-51
2021/12/04 03:16:33;;;;;;;0.70;0.43;;;;;;;-140.79;100.00;63287.88;5046314;28;20158;-52
2021/12/04 03:18:59;;;;;;;0.98;0.60;;;;;;;-140.79;100.00;63287.88;5046334;28;20063;-52
2021/12/04 03:21:25;;;;;;;1.02;0.60;;;;;;;-140.79;100.00;63287.88;5046042;28;20839;-50
2021/12/04 03:24:00;;;;;;;0.82;0.50;;;;;;;-140.79;100.00;63287.88;5046050;28;20029;-52
2021/12/04 03:26:25;;;;;;;1.67;0.80;;;;;;;-140.79;100.00;63287.88;5046554;28;20033;-52
2021/12/04 03:28:52;;;;;;;1.10;0.60;;;;;;;-140.79;100.00;63287.88;5044981;28;20028;-51
2021/12/04 03:31:52;;;;;;;1.58;0.60;;;;;;;-140.79;100.00;63287.88;5046227;28;20040;-54
2021/12/04 03:42:17;;;;;;;0.90;0.55;;;;;;;-140.79;100.00;63287.88;5046227;28;20415;-54
2021/12/04 03:44:42;;;;;;;0.90;0.60;;;;;;;-140.79;100.00;63287.88;5046049;28;20498;-51
2021/12/04 03:47:09;;;;;;;0.90;0.55;;;;;;;-140.79;100.00;63287.88;5045720;28;20488;-52
2021/12/04 03:49:34;;;;;;;0.82;0.60;;;;;;;-140.79;100.00;63287.88;5045415;28;20534;-52
2021/12/04 03:52:00;;;;;;;0.70;0.50;;;;;;;-140.79;100.00;63287.88;5045475;28;20044;-52
2021/12/04 03:54:25;;;;;;;1.10;0.60;;;;;;;-140.79;100.00;63287.88;5044213;28;20104;-51
2021/12/04 03:57:00;;;;;;;0.70;0.50;;;;;;;-140.79;100.00;63287.88;5044991;28;20032;-52
2021/12/04 03:59:26;;;;;;;0.80;0.50;;;;;;;-140.79;100.00;63287.88;5044246;28;20276;-51
2021/12/04 04:01:51;;;;;;;0.95;0.50;;;;;;;-140.79;100.00;63287.88;5045289;28;20537;-54
2021/12/04 04:04:17;;;;;;;0.80;0.43;;;;;;;-140.79;100.00;63287.88;5045594;28;20416;-52
2021/12/04 04:06:42;;;;;;;1.00;0.60;;;;;;;-140.79;100.00;63287.88;5045345;28;20419;-52
2021/12/04 04:09:08;;;;;;;1.23;0.70;;;;;;;-140.79;100.00;63287.88;5045011;28;20476;-53
2021/12/04 04:11:36;;;;;;;0.90;0.60;;;;;;;-140.79;100.00;63287.88;5045287;28;20040;-53
2021/12/04 04:14:01;;;;;;;1.10;0.50;;;;;;;-140.79;100.00;63287.88;5044640;28;20033;-53
2021/12/04 04:16:27;;;;;;;0.88;0.60;;;;;;;-140.79;100.00;63287.88;5044909;28;20098;-50
2021/12/04 04:18:52;;;;;;;1.13;0.70;;;;;;;-140.79;100.00;63287.88;5044931;28;20033;-52
2021/12/04 04:21:18;;;;;;;0.60;0.50;;;;;;;-140.79;100.00;63287.88;5045267;28;20029;-52
2021/12/04 04:23:43;;;;;;;1.05;0.68;;;;;;;-140.79;100.00;63287.88;5045155;28;20029;-53
2021/12/04 04:26:08;;;;;;;0.93;0.60;;;;;;;-140.79;100.00;63287.88;5045154;28;20074;-50
2021/12/04 04:28:34;;;;;;;1.02;0.52;;;;;;;-140.79;100.00;63287.88;5044912;28;20090;-53
2021/12/04 04:30:59;;;;;;;1.20;0.68;;;;;;;-140.79;100.00;63287.88;5045030;28;20021;-51
2021/12/04 04:33:25;;;;;;;1.00;0.68;;;;;;;-140.79;100.00;63287.88;5045123;28;20487;-55
2021/12/04 04:36:06;;;;;;;1.58;0.80;;;;;;;-140.79;100.00;63287.88;5060162;28;20037;-53
2021/12/04 04:38:42;;;;;;;0.82;0.50;;;;;;;-140.79;100.00;63287.88;5045046;28;20028;-52
2021/12/04 05:10:12;;;;;;;1.08;0.70;;;;;;;-140.79;100.00;63287.88;5043565;28;20055;-54
2021/12/04 05:13:18;;;;;;;1.17;0.60;;;;;;;-140.79;100.00;63287.88;5042681;28;20063;-51
2021/12/04 05:20:51;;;;;;;1.27;0.80;;;;;;;-140.79;100.00;63287.88;5043934;28;20013;-55
2021/12/04 05:23:17;;;;;;;0.70;0.50;;;;;;;-140.79;100.00;63287.88;5043915;28;20147;-52
2021/12/04 05:25:42;;;;;;;1.00;0.60;;;;;;;-140.79;100.00;63287.88;5043129;28;20468;-52
2021/12/04 05:28:08;;;;;;;0.85;0.50;;;;;;;-140.79;100.00;63287.88;5039353;28;20029;-53
2021/12/04 05:30:33;;;;;;;1.00;0.70;;;;;;;-140.79;100.00;63287.88;5040008;28;20016;-53
2021/12/04 05:32:59;;;;;;;1.23;0.60;;;;;;;-140.79;100.00;63287.88;5042254;28;20036;-53
2021/12/04 05:35:25;;;;;;;2.22;0.60;;;;;;;-140.79;100.00;63287.88;5042052;28;20484;-57
2021/12/04 05:37:50;;;;;;;1.00;0.55;;;;;;;-140.79;100.00;63287.88;5042811;28;20056;-54
2021/12/04 05:40:16;;;;;;;1.20;0.73;;;;;;;-140.79;100.00;63287.88;5043633;28;20029;-56
2021/12/04 05:42:42;;;;;;;1.23;0.77;;;;;;;-140.79;100.00;63287.88;5043437;28;20597;-54
2021/12/04 05:45:16;;;;;;;1.40;0.70;;;;;;;-140.79;100.00;63287.88;5043719;28;20389;-53
2021/12/04 05:55:27;;;;;;;1.08;0.65;;;;;;;-140.79;100.00;63287.88;5038888;28;20033;-52
2021/12/04 05:57:54;;;;;;;0.70;0.60;;;;;;;-140.79;100.00;63287.88;5042309;28;20502;-55
2021/12/04 06:00:21;;;;;;;1.00;0.80;;;;;;;-140.79;100.00;63287.88;5043500;28;20037;-56
2021/12/04 06:02:46;;;;;;;0.98;0.63;;;;;;;-140.79;100.00;63287.88;5042796;28;20106;-53
2021/12/04 06:05:12;;;;;;;0.85;0.60;;;;;;;-140.79;100.00;63287.88;5043396;28;20827;-56
2021/12/04 06:07:37;;;;;;;1.38;0.80;;;;;;;-140.79;100.00;63287.88;5041708;28;20029;-54
2021/12/04 06:10:03;;;;;;;1.52;0.70;;;;;;;-140.79;100.00;63287.88;5039054;28;20036;-53
2021/12/04 06:12:29;;;;;;;0.80;0.70;;;;;;;-140.79;100.00;63287.88;5054385;28;20703;-54
2021/12/04 06:14:54;;;;;;;1.17;0.65;;;;;;;-140.79;100.00;63287.88;5039230;28;20514;-55
2021/12/04 06:17:20;;;;;;;1.63;0.80;;;;;;;-140.79;100.00;63287.88;5042420;28;20535;-54
2021/12/04 06:22:42;;;;;;;1.17;0.73;;;;;;;-140.79;100.00;63287.88;5043236;28;20082;-54
2021/12/04 06:25:13;;;;;;;1.23;0.90;;;;;;;-140.79;100.00;63287.88;5042549;28;20041;-55
2021/12/04 06:27:38;;;;;;;1.50;0.90;;;;;;;-140.79;100.00;63287.88;5039063;28;20128;-51
2021/12/04 06:30:05;;;;;;;3.72;0.80;;;;;;;-140.79;100.00;63287.88;5039581;28;20033;-54
2021/12/04 06:32:31;;;;;;;1.08;0.73;;;;;;;-140.79;100.00;63287.88;5041332;28;20024;-52
2021/12/04 06:34:56;;;;;;;1.38;0.70;;;;;;;-140.79;100.00;63287.88;5041713;28;20387;-51
2021/12/04 06:37:22;;;;;;;1.13;0.60;;;;;;;-140.79;100.00;63287.88;5039119;28;20514;-51
2021/12/04 06:39:47;;;;;;;2.22;0.90;;;;;;;-140.79;100.00;63287.88;5042905;28;20037;-53
2021/12/04 06:42:13;;;;;;;1.20;0.70;;;;;;;-140.79;100.00;63287.88;5042341;28;20495;-54
2021/12/04 06:44:38;;;;;;;0.90;0.65;;;;;;;-140.79;100.00;63287.88;5042645;28;20025;-51
2021/12/04 06:47:04;;;;;;;1.48;0.90;;;;;;;-140.79;100.00;63287.88;5042363;28;20032;-56
2021/12/04 06:49:37;;;;;;;0.90;0.65;;;;;;;-140.79;100.00;63287.88;5040398;28;20025;-52
2021/12/04 06:52:05;;;;;;;1.50;0.80;;;;;;;-140.79;100.00;63287.88;5036909;28;20144;-50
2021/12/04 06:54:39;;;;;;;1.50;0.80;;;;;;;-140.79;100.00;63287.88;5038040;28;20133;-50
2021/12/04 06:57:09;;;;;;;1.30;0.80;;;;;;;-140.79;100.00;63287.88;5037282;28;20046;-51
2021/12/04 06:59:35;;;;;;;1.88;0.77;;;;;;;-140.79;100.00;63287.88;5037796;28;20041;-50
2021/12/04 07:02:00;;;;;;;1.30;0.80;;;;;;;-140.79;100.00;63287.88;5037634;28;20032;-52
2021/12/04 07:04:34;;;;;;;2.30;1.02;;;;;;;-140.79;100.00;63287.88;5039639;28;20044;-51
2021/12/04 07:07:00;;;;;;;2.50;0.88;;;;;;;-140.79;100.00;63287.88;5042289;28;20025;-53
2021/12/04 07:09:26;;;;;;;1.33;0.90;;;;;;;-140.79;100.00;63287.88;5042148;28;20033;-53
2021/12/04 07:11:51;;;;;;;2.35;0.90;;;;;;;-140.79;100.00;63287.88;5042013;28;20106;-50
2021/12/04 07:14:16;;;;;;;3.03;1.90;;;;;;;-140.79;100.00;63287.88;5042172;28;20033;-53
2021/12/04 07:16:43;;;;;;;3.03;1.33;;;;;;;-140.79;100.00;63287.88;5042044;28;20037;-53
2021/12/04 07:19:08;;;;;;;2.70;1.10;;;;;;;-140.79;100.00;63287.88;5041589;28;20041;-51
2021/12/04 07:21:34;;;;;;;3.08;1.35;;;;;;;-140.79;100.00;63287.88;5057706;28;20087;-53
2021/12/04 07:23:59;;;;;;;1.60;1.20;;;;;;;-140.79;100.00;63287.88;5042239;28;20033;-52
2021/12/04 07:26:25;;;;;;;1.77;1.00;;;;;;;-140.79;100.00;63287.88;5041905;28;20037;-53
2021/12/04 07:28:50;;;;;;;2.22;1.20;;;;;;;-140.79;100.00;63287.88;5039933;28;20048;-52
2021/12/04 07:31:15;;;;;;;3.45;1.40;;;;;;;-140.79;100.00;63287.88;5041964;28;20025;-53
2021/12/04 07:33:41;;;;;;;3.10;1.17;;;;;;;-140.79;100.00;63287.88;5045616;28;20040;-52
2021/12/04 07:36:06;;;;;;;2.17;1.50;;;;;;;-140.79;100.00;63287.88;5046015;28;20033;-51
2021/12/04 07:38:32;;;;;;;2.78;1.20;;;;;;;-140.79;100.00;63287.88;5044600;28;20495;-51
2021/12/04 07:40:58;;;;;;;4.72;1.20;;;;;;;-140.79;100.00;63287.88;5044298;28;20056;-53
2021/12/04 07:43:23;;;;;;;3.35;1.40;;;;;;;-140.79;100.00;63287.88;5045495;28;20116;-53
2021/12/04 07:45:48;;;;;;;3.25;1.35;;;;;;;-140.79;100.00;63287.88;5060896;28;20496;-50
2021/12/04 07:48:14;;;;;;;2.42;1.20;;;;;;;-140.79;100.00;63287.88;5042423;28;20055;-51
2021/12/04 07:50:39;;;;;;;2.97;1.13;;;;;;;-140.79;100.00;63287.88;5042433;28;20495;-55
2021/12/04 07:53:05;;;;;;;2.80;1.20;;;;;;;-140.79;100.00;63287.88;5042453;28;20052;-55
2021/12/04 07:55:30;;;;;;;2.53;1.30;;;;;;;-140.79;100.00;63287.88;5045596;28;20052;-54
2021/12/04 07:57:56;;;;;;;2.03;1.30;;;;;;;-140.79;100.00;63287.88;5045489;28;20029;-50
2021/12/04 08:00:21;;;;;;;1.60;1.10;;;;;;;-140.79;100.00;63287.88;5044357;28;20033;-53
2021/12/04 08:02:48;;;;;;;2.53;1.30;;;;;;;-140.79;100.00;63287.88;5044685;28;20025;-52
2021/12/04 08:05:13;;;;;;;4.07;1.35;;;;;;;-140.79;100.00;63287.88;5045028;28;20056;-50
2021/12/04 08:07:39;;;;;;;3.33;1.50;;;;;;;-140.79;100.00;63287.88;5043924;28;20083;-52
2021/12/04 08:10:06;;;;;;;2.78;1.30;;;;;;;-140.79;100.00;63287.88;5045148;28;20033;-54
2021/12/04 08:12:31;;;;;;;1.85;1.38;;;;;;;-140.79;100.00;63287.88;5044843;28;20043;-51
2021/12/04 08:14:57;;;;;;;2.13;1.20;;;;;;;-140.79;100.00;63287.88;5045368;28;20032;-55
2021/12/04 08:17:24;;;;;;;3.25;1.42;;;;;;;-140.79;100.00;63287.88;5044785;28;20376;-53
2021/12/04 08:19:50;;;;;;;2.45;1.27;;;;;;;-140.79;100.00;63287.88;5044284;28;20422;-52
2021/12/04 08:22:15;;;;;;;2.42;1.20;;;;;;;-140.79;100.00;63287.88;5045319;28;20028;-53
2021/12/04 08:24:42;;;;;;;4.40;1.40;;;;;;;-140.79;100.00;63287.88;5041956;28;20033;-54
2021/12/04 08:27:09;;;;;;;3.25;1.77;;;;;;;-140.79;100.00;63287.88;5045215;28;20112;-52
2021/12/04 08:29:35;;;;;;;4.03;1.20;;;;;;;-140.79;100.00;63287.88;5042344;28;20028;-50
2021/12/04 08:32:00;;;;;;;2.95;1.15;;;;;;;-140.79;100.00;63287.88;5040156;28;20033;-52
2021/12/04 08:34:26;;;;;;;2.08;1.27;;;;;;;-140.79;100.00;63287.88;5040536;28;20025;-51
2021/12/04 08:36:52;;;;;;;2.33;1.20;;;;;;;-140.79;100.00;63287.88;5038850;28;20037;-51
2021/12/04 08:39:18;;;;;;;3.03;1.30;;;;;;;-140.79;100.00;63287.88;5039317;28;20037;-52
2021/12/04 08:41:43;;;;;;;2.28;1.30;;;;;;;-140.79;100.00;63287.88;5039819;28;20086;-54
2021/12/04 08:44:09;;;;;;;2.38;1.20;;;;;;;-140.79;100.00;63287.88;5042455;28;20028;-53
2021/12/04 08:46:35;;;;;;;1.75;1.23;;;;;;;-140.79;100.00;63287.88;5044707;28;20044;-53
2021/12/04 08:49:00;;;;;;;2.60;1.27;;;;;;;-140.79;100.00;63287.88;5044375;28;20033;-51
2021/12/04 08:51:26;;;;;;;3.67;1.17;;;;;;;-140.79;100.00;63287.88;5041907;28;20053;-54
2021/12/04 08:53:52;;;;;;;2.17;1.40;;;;;;;-140.79;100.00;63287.88;5043855;28;20037;-52
2021/12/04 08:56:17;;;;;;;2.22;1.35;;;;;;;-140.79;100.00;63287.88;5044032;28;20037;-51
2021/12/04 08:58:43;;;;;;;2.20;1.20;;;;;;;-140.79;100.00;63287.88;5044218;28;20036;-53
2021/12/04 09:01:12;;;;;;;2.33;1.50;;;;;;;-140.79;100.00;63287.88;5044523;28;20047;-51
2021/12/04 09:03:40;;;;;;;3.55;1.60;;;;;;;-140.79;100.00;63287.88;5043951;28;20033;-53
2021/12/04 09:06:05;;;;;;;2.28;1.48;;;;;;;-140.79;100.00;63287.88;5037859;28;20413;-53
2021/12/04 09:08:31;;;;;;;3.45;1.60;;;;;;;-140.79;100.00;63287.88;5038680;28;20016;-50
2021/12/04 09:10:58;;;;;;;3.70;1.70;;;;;;;-140.79;100.00;63287.88;5040703;28;20776;-51
2021/12/04 09:13:24;;;;;;;3.28;1.67;;;;;;;-140.79;100.00;63287.88;5042813;28;20050;-56
2021/12/04 09:15:49;;;;;;;2.53;1.50;;;;;;;-140.79;100.00;63287.88;5041889;28;20049;-51
2021/12/04 09:18:15;;;;;;;2.38;1.40;;;;;;;-140.79;100.00;63287.88;5041358;28;20612;-51
2021/12/04 09:20:41;;;;;;;2.42;1.60;;;;;;;-140.79;100.00;63287.88;5041834;28;20012;-50
2021/12/04 09:23:13;;;;;;;2.55;1.38;;;;;;;-140.79;100.00;63287.88;5042745;28;20064;-52
2021/12/04 09:25:43;;;;;;;2.72;1.40;;;;;;;-140.79;100.00;63287.88;5043233;28;20017;-52
2021/12/04 09:28:21;;;;;;;3.22;2.00;;;;;;;-140.79;100.00;63287.88;5043705;28;20029;-52
2021/12/04 10:00:46;;;;;;;2.95;1.80;;;;;;;-140.79;100.00;63287.88;5042831;28;20056;-52
2021/12/04 10:21:51;;;;;;;4.28;3.35;;;;;;;-140.79;100.00;63287.88;5042505;28;20059;-54
2021/12/04 10:24:41;;;;;;;3.30;1.95;;;;;;;-140.79;100.00;63287.88;5042471;28;20556;-54
2021/12/04 10:33:16;;;;;;;3.90;2.10;;;;;;;-140.79;100.00;63287.88;5042655;28;20633;-55
2021/12/04 10:35:42;;;;;;;3.08;1.95;;;;;;;-140.79;100.00;63287.88;5042666;28;20028;-52
2021/12/04 10:38:13;;;;;;;3.00;1.83;;;;;;;-140.79;100.00;63287.88;5041602;28;20071;-55
2021/12/04 10:40:42;;;;;;;3.33;2.10;;;;;;;-140.79;100.00;63287.88;5041339;28;20029;-53
2021/12/04 10:43:13;;;;;;;2.50;1.83;;;;;;;-140.79;100.00;63287.88;5039487;28;20040;-55
2021/12/04 10:45:40;;;;;;;2.92;1.85;;;;;;;-140.79;100.00;63287.88;5042469;28;20057;-52
2021/12/04 10:48:09;;;;;;;3.33;2.10;;;;;;;-140.79;100.00;63287.88;5042308;28;20149;-55
2021/12/04 10:50:49;;;;;;;3.33;2.00;;;;;;;-140.79;100.00;63287.88;5042036;28;20049;-54
2021/12/04 10:53:23;;;;;;;3.60;2.05;;;;;;;-140.79;100.00;63287.88;5041385;28;20084;-54
2021/12/04 11:00:58;;;;;;;2.40;1.80;;;;;;;-140.79;100.00;63287.88;5042852;28;20033;-55
2021/12/04 11:06:57;;;;;;;3.08;2.17;;;;;;;-140.79;100.00;63287.88;5042570;28;20550;-51
2021/12/04 11:27:50;;;;;;;3.47;2.13;;;;;;;-140.79;100.00;63287.88;5046446;28;20523;-55
2021/12/04 11:43:18;;;;;;;3.15;2.28;;;;;;;-140.79;100.00;63287.88;5045655;28;20401;-50
2021/12/04 11:45:50;;;;;;;4.38;2.40;;;;;;;-140.79;100.00;63287.88;5044971;28;20029;-53
2021/12/04 11:48:16;;;;;;;3.60;2.20;;;;;;;-140.79;100.00;63287.88;5045140;28;20033;-53
2021/12/04 11:50:49;;;;;;;3.10;2.47;;;;;;;-140.79;100.00;63287.88;5043435;28;20063;-53
2021/12/04 11:53:17;;;;;;;3.08;2.00;;;;;;;-140.79;100.00;63287.88;5045198;28;20117;-56
2021/12/04 11:55:45;;;;;;;2.97;2.10;;;;;;;-140.79;100.00;63287.88;5045220;28;20378;-53
2021/12/04 11:58:23;;;;;;;2.50;1.80;;;;;;;-140.79;100.00;63287.88;5044823;28;20044;-56
2021/12/04 12:00:50;;;;;;;3.25;2.15;;;;;;;-140.79;100.00;63287.88;5044839;28;20036;-55
2021/12/04 12:03:20;;;;;;;3.30;1.95;;;;;;;-140.79;100.00;63287.88;5044584;28;20124;-52
2021/12/04 12:05:48;;;;;;;3.10;2.13;;;;;;;-140.79;100.00;63287.88;5042956;28;20025;-53
2021/12/04 12:08:33;;;;;;;3.08;2.08;;;;;;;-140.79;100.00;63287.88;5045127;28;20041;-50
2021/12/04 12:11:01;;;;;;;3.38;2.22;;;;;;;-140.79;100.00;63287.88;5044887;28;20035;-53
2021/12/04 12:13:32;;;;;;;3.55;2.33;;;;;;;-140.79;100.00;63287.88;5044305;28;20487;-53
2021/12/04 12:16:02;;;;;;;3.20;2.35;;;;;;;-140.79;100.00;63287.88;5044326;28;20086;-54
2021/12/04 12:18:27;;;;;;;3.05;2.22;;;;;;;-140.79;100.00;63287.88;5042788;28;20109;-52
2021/12/04 12:20:58;;;;;;;4.10;2.35;;;;;;;-140.79;100.00;63287.88;5044692;28;20515;-54
2021/12/04 12:23:27;;;;;;;3.38;2.05;;;;;;;-140.79;100.00;63287.88;5044030;28;20033;-53
2021/12/04 12:37:17;;;;;;;3.33;2.55;;;;;;;-140.79;100.00;63287.88;5043331;28;20036;-53
2021/12/04 12:40:04;;;;;;;3.67;2.28;;;;;;;-140.79;100.00;63287.88;5043618;28;20132;-53
2021/12/04 12:42:37;;;;;;;3.33;2.50;;;;;;;-140.79;100.00;63287.88;5042289;28;20041;-53
2021/12/04 12:45:33;;;;;;;3.05;2.35;;;;;;;-140.79;100.00;63287.88;5042539;28;20060;-51
2021/12/04 12:48:01;;;;;;;3.30;2.17;;;;;;;-140.79;100.00;63287.88;5044292;28;20028;-53
2021/12/04 12:50:38;;;;;;;3.33;2.10;;;;;;;-140.79;100.00;63287.88;5043567;28;20708;-52
2021/12/04 12:53:27;;;;;;;2.92;2.00;;;;;;;-140.79;100.00;63287.88;5043875;28;20049;-52
2021/12/04 12:56:04;;;;;;;2.92;2.20;;;;;;;-140.79;100.00;63287.88;5043618;28;20120;-51
2021/12/04 12:58:33;;;;;;;3.33;2.08;;;;;;;-140.79;100.00;63287.88;5043599;28;20029;-50
2021/12/04 13:12:22;;;;;;;3.08;2.20;;;;;;;-140.79;100.00;63287.88;5042569;28;20047;-54
2021/12/04 13:14:50;;;;;;;3.30;1.95;;;;;;;-140.79;100.00;63287.88;5043025;28;20044;-51
2021/12/04 13:17:17;;;;;;;3.63;2.30;;;;;;;-140.79;100.00;63287.88;5042940;28;20029;-50
2021/12/04 13:19:48;;;;;;;3.58;2.08;;;;;;;-140.79;100.00;63287.88;5043504;28;20029;-51
2021/12/04 13:22:22;;;;;;;4.68;3.47;;;;;;;-140.79;100.00;63287.88;5042757;28;20071;-53
2021/12/04 13:24:49;;;;;;;4.93;2.50;;;;;;;-140.79;100.00;63287.88;5043137;28;20127;-51
2021/12/04 13:29:46;;;;;;;6.43;2.63;;;;;;;-140.79;100.00;63287.88;5040752;28;20122;-51
2021/12/04 13:32:14;;;;;;;3.45;2.17;;;;;;;-140.79;100.00;63287.88;4999179;28;20068;-51
2021/12/04 13:34:40;;;;;;;3.92;2.30;;;;;;;-140.79;100.00;63287.88;5040598;28;20040;-49
2021/12/04 13:37:06;;;;;;;4.05;2.58;;;;;;;-140.79;100.00;63287.88;5040902;28;20036;-53
2021/12/04 13:39:32;;;;;;;4.53;2.38;;;;;;;-140.79;100.00;63287.88;5039189;28;20025;-53
2021/12/04 13:41:58;;;;;;;4.82;2.47;;;;;;;-140.79;100.00;63287.88;5040031;28;20025;-54
2021/12/04 13:44:25;;;;;;;3.65;2.50;;;;;;;-140.79;100.00;63287.88;5042019;28;20063;-54
2021/12/04 13:46:55;;;;;;;3.10;2.20;;;;;;;-140.79;100.00;63287.88;5042828;28;20040;-53
2021/12/04 13:49:31;;;;;;;3.88;2.17;;;;;;;-140.79;100.00;63287.88;5042280;28;20557;-53
2021/12/04 13:51:59;;;;;;;3.25;2.40;;;;;;;-140.79;100.00;63287.88;5042892;28;20184;-54
2021/12/04 13:54:25;;;;;;;3.63;2.20;;;;;;;-140.79;100.00;63287.88;5043090;28;20052;-51
2021/12/04 13:56:51;;;;;;;3.78;2.35;;;;;;;-140.79;100.00;63287.88;5042329;28;20032;-52
2021/12/04 13:59:20;;;;;;;3.83;2.72;;;;;;;-140.79;100.00;63287.88;5041750;28;20482;-50
2021/12/04 14:01:46;;;;;;;3.20;2.50;;;;;;;-140.79;100.00;63287.88;5042848;28;20029;-54
2021/12/04 14:04:16;;;;;;;3.58;2.30;;;;;;;-140.79;100.00;63287.88;5040771;28;20036;-54
2021/12/04 14:07:01;;;;;;;3.83;2.35;;;;;;;-140.79;100.00;63287.88;5056604;28;20035;-54
2021/12/04 14:09:35;;;;;;;4.20;2.63;;;;;;;-140.79;100.00;63287.88;5041820;28;20517;-55
2021/12/04 14:12:02;;;;;;;5.20;2.60;;;;;;;-140.79;100.00;63287.88;5042806;28;20129;-54
2021/12/04 14:14:28;;;;;;;3.63;2.20;;;;;;;-140.79;100.00;63287.88;5042594;28;20424;-51